createdAt,value
2023-01-08T00:00:50.209Z,99792.88
2023-01-08T00:01:52.759Z,99796.47
2023-01-08T00:02:54.435Z,99796.44
2023-01-08T00:03:57.068Z,99789.06
2023-01-08T00:04:58.631Z,99798.53
2023-01-08T00:06:02.905Z,99789.50
2023-01-08T00:07:07.443Z,99788.16
2023-01-08T00:08:10.312Z,99782.50
2023-01-08T00:09:14.199Z,99782.22
2023-01-08T00:10:15.945Z,99778.97
2023-01-08T00:11:18.678Z,99785.72
2023-01-08T00:12:20.243Z,99782.44
2023-01-08T00:13:22.985Z,99777.56
2023-01-08T00:14:24.538Z,99787.88
2023-01-08T00:15:27.069Z,99783.03
2023-01-08T00:16:29.823Z,99776.53
2023-01-08T00:17:31.331Z,99771.91
2023-01-08T00:18:37.082Z,99782.97
2023-01-08T00:19:41.508Z,99775.94
2023-01-08T00:20:44.371Z,99775.13
2023-01-08T00:21:46.872Z,99780.25
2023-01-08T00:22:49.096Z,99776.16
2023-01-08T00:23:55.384Z,99767.72
2023-01-08T00:24:58.249Z,99770.66
2023-01-08T00:26:02.305Z,99774.19
2023-01-08T00:27:04.062Z,99772.72
2023-01-08T00:28:06.579Z,99751.44
2023-01-08T00:29:08.277Z,99764.91
2023-01-08T00:30:11.806Z,99771.38
2023-01-08T00:31:13.995Z,99771.91
2023-01-08T00:32:16.576Z,99745.34
2023-01-08T00:33:18.071Z,99750.78
2023-01-08T00:34:20.544Z,99758.16
2023-01-08T00:35:22.116Z,99744.59
2023-01-08T00:36:24.700Z,99757.59
2023-01-08T00:37:26.235Z,99760.84
2023-01-08T00:38:29.483Z,99754.34
2023-01-08T00:39:31.123Z,99748.88
2023-01-08T00:40:36.220Z,99753.97
2023-01-08T00:41:37.754Z,99753.97
2023-01-08T00:42:40.216Z,99756.16
2023-01-08T00:43:41.782Z,99759.47
2023-01-08T00:44:44.264Z,99759.44
2023-01-08T00:45:45.864Z,99745.94
2023-01-08T00:46:48.413Z,99760.84
2023-01-08T00:47:50.006Z,99750.22
2023-01-08T00:48:52.461Z,99754.81
2023-01-08T00:49:53.944Z,99769.78
2023-01-08T00:50:56.698Z,99765.63
2023-01-08T00:51:59.142Z,99752.91
2023-01-08T00:53:00.923Z,99755.81
2023-01-08T00:54:03.489Z,99757.38
2023-01-08T00:55:06.195Z,99764.75
2023-01-08T00:56:11.513Z,99754.91
2023-01-08T00:57:13.015Z,99744.25
2023-01-08T00:58:16.007Z,99744.31
2023-01-08T00:59:17.733Z,99749.91
2023-01-08T01:00:20.265Z,99750.84
2023-01-08T01:01:21.946Z,99748.00
2023-01-08T01:02:24.519Z,99746.44
2023-01-08T01:03:26.157Z,99738.06
2023-01-08T01:04:28.778Z,99737.50
2023-01-08T01:05:30.390Z,99739.41
2023-01-08T01:06:32.882Z,99733.81
2023-01-08T01:07:34.980Z,99746.63
2023-01-08T01:08:37.451Z,99729.84
2023-01-08T01:09:38.958Z,99732.66
2023-01-08T01:10:41.420Z,99732.13
2023-01-08T01:11:44.249Z,99732.72
2023-01-08T01:12:46.859Z,99722.47
2023-01-08T01:13:48.932Z,99716.75
2023-01-08T01:14:51.713Z,99718.75
2023-01-08T01:16:00.346Z,99717.56
2023-01-08T01:17:02.841Z,99708.34
2023-01-08T01:18:04.434Z,99715.25
2023-01-08T01:19:06.943Z,99714.44
2023-01-08T01:20:11.107Z,99715.97
2023-01-08T01:21:18.690Z,99715.91
2023-01-08T01:22:20.182Z,99708.09
2023-01-08T01:23:22.691Z,99699.75
2023-01-08T01:24:25.185Z,99703.44
2023-01-08T01:25:26.828Z,99712.88
2023-01-08T01:26:29.867Z,99703.56
2023-01-08T01:27:32.763Z,99703.66
2023-01-08T01:28:35.230Z,99711.13
2023-01-08T01:29:38.741Z,99723.44
2023-01-08T01:30:41.335Z,99715.81
2023-01-08T01:31:44.001Z,99714.91
2023-01-08T01:32:45.553Z,99720.63
2023-01-08T01:33:48.548Z,99733.34
2023-01-08T01:34:50.069Z,99710.34
2023-01-08T01:36:00.799Z,99707.44
2023-01-08T01:37:02.435Z,99704.72
2023-01-08T01:38:04.905Z,99701.28
2023-01-08T01:39:06.460Z,99704.28
2023-01-08T01:40:09.861Z,99700.75
2023-01-08T01:41:19.360Z,99696.03
2023-01-08T01:42:35.809Z,99699.28
2023-01-08T01:43:42.208Z,99691.72
2023-01-08T01:44:45.106Z,99697.16
2023-01-08T01:45:47.631Z,99709.38
2023-01-08T01:46:49.980Z,99698.91
2023-01-08T01:47:56.862Z,99692.38
2023-01-08T01:49:01.801Z,99704.56
2023-01-08T01:50:09.632Z,99696.66
2023-01-08T01:51:11.180Z,99705.34
2023-01-08T01:52:13.702Z,99704.28
2023-01-08T01:53:20.273Z,99703.28
2023-01-08T01:54:23.468Z,99697.78
2023-01-08T01:55:26.902Z,99709.22
2023-01-08T01:56:30.042Z,99707.84
2023-01-08T01:57:33.283Z,99708.59
2023-01-08T01:58:35.907Z,99706.41
2023-01-08T01:59:38.786Z,99709.78
2023-01-08T02:00:42.224Z,99707.84
2023-01-08T02:01:44.236Z,99700.44
2023-01-08T02:02:46.920Z,99693.38
2023-01-08T02:03:48.549Z,99691.81
2023-01-08T02:04:51.384Z,99688.06
2023-01-08T02:05:59.000Z,99682.63
2023-01-08T02:07:08.446Z,99676.38
2023-01-08T02:08:13.587Z,99674.72
2023-01-08T02:09:23.553Z,99680.91
2023-01-08T02:10:32.289Z,99673.94
2023-01-08T02:11:45.193Z,99678.78
2023-01-08T02:12:51.989Z,99679.31
2023-01-08T02:14:01.640Z,99673.69
2023-01-08T02:15:12.622Z,99663.09
2023-01-08T02:16:19.673Z,99661.44
2023-01-08T02:17:26.669Z,99663.84
2023-01-08T02:18:33.695Z,99668.47
2023-01-08T02:19:42.611Z,99659.03
2023-01-08T02:20:48.749Z,99650.03
2023-01-08T02:22:02.715Z,99650.63
2023-01-08T02:23:15.523Z,99645.19
2023-01-08T02:24:22.939Z,99661.69
2023-01-08T02:25:38.858Z,99645.91
2023-01-08T02:26:44.743Z,99632.34
2023-01-08T02:27:50.431Z,99623.16
2023-01-08T02:28:58.283Z,99641.75
2023-01-08T02:30:02.297Z,99640.09
2023-01-08T02:31:06.006Z,99634.59
2023-01-08T02:32:08.965Z,99639.41
2023-01-08T02:33:11.680Z,99631.63
2023-01-08T02:34:14.385Z,99647.97
2023-01-08T02:35:15.975Z,99643.34
2023-01-08T02:36:35.124Z,99640.56
2023-01-08T02:37:38.277Z,99646.97
2023-01-08T02:38:55.052Z,99649.59
2023-01-08T02:40:07.026Z,99644.16
2023-01-08T02:41:11.466Z,99655.88
2023-01-08T02:42:24.839Z,99654.00
2023-01-08T02:43:30.747Z,99639.94
2023-01-08T02:44:46.369Z,99649.16
2023-01-08T02:45:50.972Z,99647.03
2023-01-08T02:46:56.678Z,99642.66
2023-01-08T02:48:07.696Z,99649.97
2023-01-08T02:49:12.589Z,99657.16
2023-01-08T02:50:22.576Z,99652.91
2023-01-08T02:51:29.090Z,99663.72
2023-01-08T02:52:36.106Z,99644.34
2023-01-08T02:53:42.107Z,99644.69
2023-01-08T02:54:45.924Z,99642.22
2023-01-08T02:55:53.644Z,99636.25
2023-01-08T02:56:59.592Z,99645.41
2023-01-08T02:58:04.542Z,99640.94
2023-01-08T02:59:08.078Z,99638.38
2023-01-08T03:00:12.153Z,99647.78
2023-01-08T03:01:18.189Z,99640.34
2023-01-08T03:02:19.909Z,99646.88
2023-01-08T03:03:25.382Z,99647.00
2023-01-08T03:04:31.213Z,99641.31
2023-01-08T03:05:34.859Z,99649.63
2023-01-08T03:06:37.990Z,99664.28
2023-01-08T03:07:40.573Z,99650.69
2023-01-08T03:08:44.646Z,99671.56
2023-01-08T03:09:47.547Z,99666.72
2023-01-08T03:10:56.517Z,99661.88
2023-01-08T03:12:02.166Z,99674.63
2023-01-08T03:13:12.756Z,99662.91
2023-01-08T03:14:22.966Z,99671.53
2023-01-08T03:15:30.297Z,99677.06
2023-01-08T03:16:35.911Z,99671.34
2023-01-08T03:17:42.783Z,99672.84
2023-01-08T03:18:50.149Z,99669.88
2023-01-08T03:19:54.723Z,99677.38
2023-01-08T03:20:57.285Z,99676.88
2023-01-08T03:22:00.918Z,99679.69
2023-01-08T03:23:08.473Z,99674.03
2023-01-08T03:24:12.311Z,99668.81
2023-01-08T03:25:17.105Z,99664.81
2023-01-08T03:26:22.662Z,99672.63
2023-01-08T03:27:31.922Z,99679.72
2023-01-08T03:28:39.383Z,99668.53
2023-01-08T03:29:40.982Z,99673.16
2023-01-08T03:30:44.987Z,99670.78
2023-01-08T03:31:47.602Z,99674.84
2023-01-08T03:32:52.390Z,99663.56
2023-01-08T03:33:55.217Z,99679.00
2023-01-08T03:35:00.382Z,99668.44
2023-01-08T03:36:05.422Z,99673.53
2023-01-08T03:37:10.745Z,99670.94
2023-01-08T03:38:18.326Z,99674.06
2023-01-08T03:39:24.316Z,99675.28
2023-01-08T03:40:32.516Z,99670.53
2023-01-08T03:41:36.172Z,99677.03
2023-01-08T03:42:38.847Z,99673.22
2023-01-08T03:43:41.677Z,99667.06
2023-01-08T03:44:44.322Z,99672.09
2023-01-08T03:45:51.675Z,99673.03
2023-01-08T03:46:56.585Z,99675.03
2023-01-08T03:48:00.397Z,99676.00
2023-01-08T03:49:05.514Z,99680.81
2023-01-08T03:50:10.269Z,99679.16
2023-01-08T03:51:13.108Z,99674.69
2023-01-08T03:52:22.305Z,99673.09
2023-01-08T03:53:24.810Z,99663.41
2023-01-08T03:54:31.596Z,99672.56
2023-01-08T03:55:34.147Z,99678.47
2023-01-08T03:56:38.004Z,99672.91
2023-01-08T03:57:40.461Z,99660.81
2023-01-08T03:58:43.357Z,99640.72
2023-01-08T03:59:45.967Z,99634.44
2023-01-08T04:00:47.570Z,99662.38
2023-01-08T04:01:50.419Z,99642.94
2023-01-08T04:02:52.011Z,99678.91
2023-01-08T04:03:54.546Z,99661.59
2023-01-08T04:04:56.144Z,99660.53
2023-01-08T04:06:00.359Z,99674.19
2023-01-08T04:07:02.069Z,99680.50
2023-01-08T04:08:04.757Z,99686.72
2023-01-08T04:09:06.487Z,99685.44
2023-01-08T04:10:09.487Z,99681.19
2023-01-08T04:11:10.948Z,99690.13
2023-01-08T04:12:13.438Z,99683.41
2023-01-08T04:13:15.898Z,99679.34
2023-01-08T04:14:18.889Z,99674.22
2023-01-08T04:15:21.735Z,99653.47
2023-01-08T04:16:23.515Z,99665.84
2023-01-08T04:17:26.160Z,99675.13
2023-01-08T04:18:27.671Z,99689.88
2023-01-08T04:19:30.213Z,99681.56
2023-01-08T04:20:31.706Z,99665.66
2023-01-08T04:21:34.133Z,99677.91
2023-01-08T04:22:35.610Z,99680.50
2023-01-08T04:23:38.058Z,99673.72
2023-01-08T04:24:39.660Z,99664.34
2023-01-08T04:25:42.251Z,99671.41
2023-01-08T04:26:43.917Z,99673.44
2023-01-08T04:27:46.324Z,99661.06
2023-01-08T04:28:47.849Z,99652.81
2023-01-08T04:29:51.623Z,99655.03
2023-01-08T04:30:53.151Z,99654.50
2023-01-08T04:31:55.623Z,99655.00
2023-01-08T04:32:57.362Z,99655.94
2023-01-08T04:33:59.787Z,99660.72
2023-01-08T04:35:02.234Z,99640.22
2023-01-08T04:36:05.161Z,99646.91
2023-01-08T04:37:07.613Z,99653.69
2023-01-08T04:38:10.922Z,99659.31
2023-01-08T04:39:14.075Z,99647.13
2023-01-08T04:40:16.033Z,99624.53
2023-01-08T04:41:19.291Z,99643.84
2023-01-08T04:42:20.846Z,99640.59
2023-01-08T04:43:23.304Z,99644.28
2023-01-08T04:44:25.754Z,99645.31
2023-01-08T04:45:29.475Z,99649.56
2023-01-08T04:46:30.958Z,99644.50
2023-01-08T04:47:33.486Z,99643.59
2023-01-08T04:48:35.500Z,99636.63
2023-01-08T04:49:37.911Z,99635.53
2023-01-08T04:50:39.450Z,99630.38
2023-01-08T04:51:41.896Z,99624.59
2023-01-08T04:52:43.393Z,99636.13
2023-01-08T04:53:46.350Z,99627.19
2023-01-08T04:54:47.947Z,99628.16
2023-01-08T04:55:50.488Z,99626.38
2023-01-08T04:56:51.999Z,99627.41
2023-01-08T04:57:54.504Z,99620.50
2023-01-08T04:58:55.991Z,99619.16
2023-01-08T04:59:58.384Z,99618.63
2023-01-08T05:01:01.801Z,99624.00
2023-01-08T05:02:04.327Z,99618.44
2023-01-08T05:03:06.015Z,99614.47
2023-01-08T05:04:08.476Z,99617.97
2023-01-08T05:05:10.141Z,99614.94
2023-01-08T05:06:12.783Z,99608.97
2023-01-08T05:07:14.363Z,99621.66
2023-01-08T05:08:16.814Z,99611.75
2023-01-08T05:09:18.354Z,99617.06
2023-01-08T05:10:20.841Z,99615.78
2023-01-08T05:11:22.809Z,99612.47
2023-01-08T05:12:25.260Z,99611.47
2023-01-08T05:13:26.874Z,99603.94
2023-01-08T05:14:29.270Z,99601.47
2023-01-08T05:15:30.778Z,99602.69
2023-01-08T05:16:34.568Z,99604.44
2023-01-08T05:17:36.259Z,99596.81
2023-01-08T05:18:38.695Z,99599.88
2023-01-08T05:19:40.285Z,99596.06
2023-01-08T05:20:42.701Z,99584.19
2023-01-08T05:21:45.228Z,99592.06
2023-01-08T05:22:48.307Z,99586.22
2023-01-08T05:23:50.761Z,99572.75
2023-01-08T05:24:52.378Z,99584.78
2023-01-08T05:25:58.092Z,99580.16
2023-01-08T05:26:59.629Z,99586.28
2023-01-08T05:28:02.114Z,99583.88
2023-01-08T05:29:03.733Z,99577.25
2023-01-08T05:30:07.569Z,99572.97
2023-01-08T05:31:09.221Z,99584.38
2023-01-08T05:32:16.783Z,99590.78
2023-01-08T05:33:18.580Z,99585.31
2023-01-08T05:34:20.986Z,99584.56
2023-01-08T05:35:22.493Z,99574.66
2023-01-08T05:36:24.989Z,99577.38
2023-01-08T05:37:26.570Z,99573.25
2023-01-08T05:38:29.038Z,99577.81
2023-01-08T05:39:30.509Z,99579.81
2023-01-08T05:40:32.989Z,99587.31
2023-01-08T05:41:35.434Z,99580.84
2023-01-08T05:42:37.441Z,99586.81
2023-01-08T05:43:39.920Z,99586.50
2023-01-08T05:44:41.392Z,99577.66
2023-01-08T05:45:43.845Z,99580.09
2023-01-08T05:46:45.427Z,99584.50
2023-01-08T05:47:49.240Z,99588.50
2023-01-08T05:48:50.742Z,99582.81
2023-01-08T05:49:53.170Z,99590.75
2023-01-08T05:50:54.686Z,99596.56
2023-01-08T05:51:57.140Z,99591.69
2023-01-08T05:52:59.523Z,99597.47
2023-01-08T05:54:01.955Z,99585.44
2023-01-08T05:55:03.692Z,99597.84
2023-01-08T05:56:09.381Z,99588.78
2023-01-08T05:57:11.231Z,99589.59
2023-01-08T05:58:13.699Z,99587.09
2023-01-08T05:59:15.179Z,99586.84
2023-01-08T06:00:17.868Z,99587.38
2023-01-08T06:01:19.418Z,99593.34
2023-01-08T06:02:22.095Z,99578.75
2023-01-08T06:03:24.919Z,99583.09
2023-01-08T06:04:27.752Z,99586.28
2023-01-08T06:05:30.351Z,99591.16
2023-01-08T06:06:32.850Z,99600.50
2023-01-08T06:07:34.384Z,99593.47
2023-01-08T06:08:36.848Z,99589.16
2023-01-08T06:09:38.381Z,99566.00
2023-01-08T06:10:40.795Z,99606.63
2023-01-08T06:11:42.310Z,99605.41
2023-01-08T06:12:44.824Z,99596.72
2023-01-08T06:13:46.429Z,99599.41
2023-01-08T06:14:48.840Z,99603.91
2023-01-08T06:15:50.363Z,99596.53
2023-01-08T06:16:52.873Z,99604.53
2023-01-08T06:17:54.435Z,99618.38
2023-01-08T06:18:58.215Z,99605.28
2023-01-08T06:19:59.716Z,99598.66
2023-01-08T06:21:02.743Z,99601.78
2023-01-08T06:22:04.251Z,99593.09
2023-01-08T06:23:08.666Z,99598.78
2023-01-08T06:24:10.349Z,99601.44
2023-01-08T06:25:12.863Z,99597.75
2023-01-08T06:26:14.316Z,99590.00
2023-01-08T06:27:16.868Z,99599.34
2023-01-08T06:28:18.364Z,99593.38
2023-01-08T06:29:20.888Z,99582.47
2023-01-08T06:30:22.404Z,99593.88
2023-01-08T06:31:24.888Z,99591.72
2023-01-08T06:32:26.466Z,99587.31
2023-01-08T06:33:29.964Z,99597.44
2023-01-08T06:34:33.751Z,99583.31
2023-01-08T06:35:36.375Z,99598.31
2023-01-08T06:36:37.877Z,99589.47
2023-01-08T06:37:40.358Z,99601.97
2023-01-08T06:38:41.844Z,99612.84
2023-01-08T06:39:44.322Z,99590.88
2023-01-08T06:40:45.968Z,99592.31
2023-01-08T06:41:48.456Z,99601.69
2023-01-08T06:42:50.907Z,99606.34
2023-01-08T06:43:52.444Z,99600.88
2023-01-08T06:44:54.858Z,99597.03
2023-01-08T06:45:58.371Z,99612.84
2023-01-08T06:47:00.844Z,99602.25
2023-01-08T06:48:03.117Z,99603.63
2023-01-08T06:49:05.544Z,99592.31
2023-01-08T06:50:09.796Z,99605.28
2023-01-08T06:51:11.290Z,99601.03
2023-01-08T06:52:13.801Z,99606.66
2023-01-08T06:53:15.388Z,99603.66
2023-01-08T06:54:17.989Z,99595.75
2023-01-08T06:55:19.882Z,99599.41
2023-01-08T06:56:22.310Z,99588.88
2023-01-08T06:57:23.823Z,99581.94
2023-01-08T06:58:27.342Z,99583.00
2023-01-08T06:59:28.819Z,99581.88
2023-01-08T07:00:31.247Z,99591.44
2023-01-08T07:01:32.737Z,99580.09
2023-01-08T07:02:35.405Z,99579.63
2023-01-08T07:03:37.010Z,99586.91
2023-01-08T07:04:39.463Z,99584.94
2023-01-08T07:05:42.315Z,99597.00
2023-01-08T07:06:44.770Z,99599.47
2023-01-08T07:07:46.323Z,99599.41
2023-01-08T07:08:49.639Z,99603.84
2023-01-08T07:09:51.124Z,99611.97
2023-01-08T07:10:53.595Z,99618.19
2023-01-08T07:11:55.097Z,99614.56
2023-01-08T07:12:57.680Z,99612.03
2023-01-08T07:13:59.186Z,99613.47
2023-01-08T07:15:02.478Z,99606.97
2023-01-08T07:16:07.307Z,99603.63
2023-01-08T07:17:09.960Z,99614.66
2023-01-08T07:18:12.659Z,99613.16
2023-01-08T07:19:15.075Z,99602.19
2023-01-08T07:20:16.782Z,99587.59
2023-01-08T07:21:21.186Z,99585.88
2023-01-08T07:22:24.271Z,99583.50
2023-01-08T07:23:26.725Z,99595.47
2023-01-08T07:24:29.316Z,99591.66
2023-01-08T07:25:31.490Z,99583.97
2023-01-08T07:26:34.197Z,99572.63
2023-01-08T07:27:35.656Z,99572.81
2023-01-08T07:28:38.043Z,99563.66
2023-01-08T07:29:39.532Z,99559.75
2023-01-08T07:30:43.182Z,99559.78
2023-01-08T07:31:45.669Z,99545.22
2023-01-08T07:32:47.194Z,99543.81
2023-01-08T07:33:50.419Z,99550.22
2023-01-08T07:34:54.219Z,99551.25
2023-01-08T07:35:57.542Z,99526.59
2023-01-08T07:37:01.435Z,99541.47
2023-01-08T07:38:02.930Z,99552.59
2023-01-08T07:39:05.544Z,99548.75
2023-01-08T07:40:08.278Z,99545.41
2023-01-08T07:41:10.732Z,99541.91
2023-01-08T07:42:12.206Z,99545.91
2023-01-08T07:43:15.097Z,99541.88
2023-01-08T07:44:16.700Z,99541.81
2023-01-08T07:45:19.221Z,99548.66
2023-01-08T07:46:20.827Z,99546.97
2023-01-08T07:47:23.277Z,99542.88
2023-01-08T07:48:24.818Z,99540.16
2023-01-08T07:49:27.251Z,99546.97
2023-01-08T07:50:28.887Z,99546.41
2023-01-08T07:51:31.427Z,99548.88
2023-01-08T07:52:34.215Z,99548.69
2023-01-08T07:53:37.651Z,99546.75
2023-01-08T07:54:40.047Z,99556.41
2023-01-08T07:55:42.447Z,99557.22
2023-01-08T07:56:45.118Z,99566.25
2023-01-08T07:57:46.762Z,99562.66
2023-01-08T07:58:49.187Z,99574.50
2023-01-08T07:59:50.621Z,99579.72
2023-01-08T08:00:53.063Z,99573.00
2023-01-08T08:01:54.651Z,99566.66
2023-01-08T08:02:57.230Z,99567.84
2023-01-08T08:03:58.755Z,99559.34
2023-01-08T08:05:01.207Z,99554.88
2023-01-08T08:06:03.686Z,99568.69
2023-01-08T08:07:06.171Z,99574.84
2023-01-08T08:08:10.054Z,99564.84
2023-01-08T08:09:12.451Z,99568.03
2023-01-08T08:10:13.952Z,99568.09
2023-01-08T08:11:16.379Z,99568.56
2023-01-08T08:12:17.996Z,99567.88
2023-01-08T08:13:20.433Z,99573.69
2023-01-08T08:14:21.951Z,99566.47
2023-01-08T08:15:24.380Z,99571.03
2023-01-08T08:16:26.972Z,99568.84
2023-01-08T08:17:28.564Z,99572.06
2023-01-08T08:18:31.042Z,99576.63
2023-01-08T08:19:32.580Z,99581.22
2023-01-08T08:20:35.170Z,99574.66
2023-01-08T08:21:37.585Z,99580.91
2023-01-08T08:22:39.053Z,99585.31
2023-01-08T08:23:42.779Z,99579.22
2023-01-08T08:24:44.265Z,99578.69
2023-01-08T08:25:46.719Z,99570.66
2023-01-08T08:26:48.326Z,99578.19
2023-01-08T08:27:50.788Z,99574.13
2023-01-08T08:28:55.147Z,99570.31
2023-01-08T08:29:57.567Z,99575.00
2023-01-08T08:31:00.139Z,99562.28
2023-01-08T08:32:01.665Z,99580.97
2023-01-08T08:33:05.974Z,99576.13
2023-01-08T08:34:08.029Z,99573.94
2023-01-08T08:35:10.910Z,99571.50
2023-01-08T08:36:13.439Z,99573.34
2023-01-08T08:37:15.870Z,99563.47
2023-01-08T08:38:18.376Z,99566.72
2023-01-08T08:39:21.282Z,99559.09
2023-01-08T08:40:24.370Z,99557.44
2023-01-08T08:41:26.825Z,99552.25
2023-01-08T08:42:28.287Z,99556.53
2023-01-08T08:43:30.740Z,99557.88
2023-01-08T08:44:33.198Z,99552.59
2023-01-08T08:45:35.723Z,99539.38
2023-01-08T08:46:37.256Z,99550.28
2023-01-08T08:47:40.160Z,99550.81
2023-01-08T08:48:42.620Z,99554.53
2023-01-08T08:49:44.126Z,99550.56
2023-01-08T08:50:46.569Z,99547.50
2023-01-08T08:51:48.051Z,99553.25
2023-01-08T08:52:50.555Z,99553.75
2023-01-08T08:53:53.336Z,99552.25
2023-01-08T08:54:56.237Z,99555.50
2023-01-08T08:55:59.309Z,99556.50
2023-01-08T08:57:02.473Z,99566.72
2023-01-08T08:58:06.730Z,99561.50
2023-01-08T08:59:13.096Z,99553.50
2023-01-08T09:00:16.964Z,99556.78
2023-01-08T09:01:18.590Z,99556.91
2023-01-08T09:02:21.423Z,99561.50
2023-01-08T09:03:24.043Z,99564.16
2023-01-08T09:04:25.520Z,99565.06
2023-01-08T09:05:28.640Z,99567.75
2023-01-08T09:06:33.187Z,99572.91
2023-01-08T09:07:38.067Z,99575.03
2023-01-08T09:08:40.830Z,99568.00
2023-01-08T09:09:42.359Z,99570.44
2023-01-08T09:10:46.289Z,99578.22
2023-01-08T09:11:50.565Z,99585.72
2023-01-08T09:12:54.296Z,99555.28
2023-01-08T09:13:57.001Z,99576.84
2023-01-08T09:15:00.277Z,99575.41
2023-01-08T09:16:03.107Z,99579.41
2023-01-08T09:17:04.661Z,99577.88
2023-01-08T09:18:07.548Z,99573.25
2023-01-08T09:19:09.526Z,99562.44
2023-01-08T09:20:12.132Z,99573.38
2023-01-08T09:21:13.601Z,99580.28
2023-01-08T09:22:16.042Z,99582.28
2023-01-08T09:23:18.495Z,99577.03
2023-01-08T09:24:20.023Z,99582.72
2023-01-08T09:25:22.472Z,99574.34
2023-01-08T09:26:28.525Z,99573.22
2023-01-08T09:27:31.085Z,99574.63
2023-01-08T09:28:33.148Z,99568.28
2023-01-08T09:29:35.583Z,99580.00
2023-01-08T09:30:38.059Z,99577.47
2023-01-08T09:31:39.626Z,99574.25
2023-01-08T09:32:42.108Z,99574.09
2023-01-08T09:33:43.589Z,99578.94
2023-01-08T09:34:46.029Z,99587.19
2023-01-08T09:35:48.504Z,99576.00
2023-01-08T09:36:51.040Z,99589.66
2023-01-08T09:37:53.633Z,99586.41
2023-01-08T09:38:56.108Z,99586.72
2023-01-08T09:40:02.254Z,99589.56
2023-01-08T09:41:09.592Z,99593.78
2023-01-08T09:42:14.328Z,99593.06
2023-01-08T09:43:20.746Z,99594.28
2023-01-08T09:44:27.543Z,99591.16
2023-01-08T09:45:32.642Z,99584.41
2023-01-08T09:46:35.879Z,99564.88
2023-01-08T09:47:41.887Z,99564.19
2023-01-08T09:48:44.340Z,99564.31
2023-01-08T09:49:49.490Z,99564.31
2023-01-08T09:50:52.565Z,99547.56
2023-01-08T09:51:55.838Z,99566.13
2023-01-08T09:52:59.028Z,99566.47
2023-01-08T09:54:02.230Z,99563.13
2023-01-08T09:55:11.346Z,99562.78
2023-01-08T09:56:16.508Z,99568.50
2023-01-08T09:57:22.560Z,99565.94
2023-01-08T09:58:33.468Z,99554.91
2023-01-08T09:59:35.938Z,99568.47
2023-01-08T10:00:37.534Z,99573.22
2023-01-08T10:01:40.973Z,99569.69
2023-01-08T10:02:44.302Z,99564.84
2023-01-08T10:03:50.173Z,99573.09
2023-01-08T10:04:57.249Z,99576.75
2023-01-08T10:05:58.761Z,99564.81
2023-01-08T10:07:07.043Z,99570.38
2023-01-08T10:08:14.698Z,99562.50
2023-01-08T10:09:16.611Z,99567.22
2023-01-08T10:10:23.765Z,99568.41
2023-01-08T10:11:29.259Z,99565.72
2023-01-08T10:12:36.735Z,99567.50
2023-01-08T10:13:42.639Z,99569.81
2023-01-08T10:14:49.934Z,99570.38
2023-01-08T10:15:53.176Z,99570.75
2023-01-08T10:16:59.799Z,99566.56
2023-01-08T10:18:05.621Z,99576.63
2023-01-08T10:19:10.862Z,99562.34
2023-01-08T10:20:15.344Z,99555.38
2023-01-08T10:21:17.635Z,99561.47
2023-01-08T10:22:22.061Z,99560.50
2023-01-08T10:23:25.578Z,99552.28
2023-01-08T10:24:35.479Z,99555.34
2023-01-08T10:25:49.970Z,99556.47
2023-01-08T10:26:53.125Z,99548.53
2023-01-08T10:28:01.841Z,99550.16
2023-01-08T10:29:08.824Z,99547.28
2023-01-08T10:30:17.550Z,99548.75
2023-01-08T10:31:20.041Z,99557.56
2023-01-08T10:32:29.699Z,99553.31
2023-01-08T10:33:39.654Z,99556.88
2023-01-08T10:34:45.594Z,99559.78
2023-01-08T10:35:55.902Z,99551.97
2023-01-08T10:36:57.410Z,99543.72
2023-01-08T10:38:00.120Z,99543.59
2023-01-08T10:39:03.056Z,99531.31
2023-01-08T10:40:23.501Z,99533.03
2023-01-08T10:41:26.355Z,99531.94
2023-01-08T10:42:28.800Z,99531.84
2023-01-08T10:43:34.821Z,99539.31
2023-01-08T10:44:37.710Z,99530.16
2023-01-08T10:45:41.856Z,99523.69
2023-01-08T10:46:48.168Z,99516.88
2023-01-08T10:48:00.251Z,99528.94
2023-01-08T10:49:06.480Z,99522.78
2023-01-08T10:50:20.284Z,99527.06
2023-01-08T10:51:24.879Z,99517.25
2023-01-08T10:52:31.707Z,99523.22
2023-01-08T10:53:33.320Z,99505.50
2023-01-08T10:54:37.991Z,99516.22
2023-01-08T10:55:40.617Z,99505.50
2023-01-08T10:56:44.197Z,99508.44
2023-01-08T10:57:57.942Z,99508.25
2023-01-08T10:59:01.708Z,99506.50
2023-01-08T11:00:06.606Z,99495.50
2023-01-08T11:01:17.024Z,99485.53
2023-01-08T11:02:30.637Z,99495.09
2023-01-08T11:03:33.794Z,99490.31
2023-01-08T11:04:37.650Z,99489.81
2023-01-08T11:05:42.966Z,99486.34
2023-01-08T11:06:45.328Z,99493.78
2023-01-08T11:07:54.955Z,99491.34
2023-01-08T11:09:00.251Z,99494.69
2023-01-08T11:10:05.378Z,99488.75
2023-01-08T11:11:10.959Z,99490.56
2023-01-08T11:12:33.013Z,99490.97
2023-01-08T11:13:34.610Z,99504.41
2023-01-08T11:14:39.906Z,99495.22
2023-01-08T11:15:43.103Z,99485.22
2023-01-08T11:16:44.822Z,99487.66
2023-01-08T11:17:47.622Z,99496.13
2023-01-08T11:18:52.199Z,99489.94
2023-01-08T11:19:55.935Z,99489.03
2023-01-08T11:21:08.917Z,99490.78
2023-01-08T11:22:19.505Z,99491.91
2023-01-08T11:23:24.516Z,99493.31
2023-01-08T11:24:29.148Z,99502.47
2023-01-08T11:25:32.919Z,99498.16
2023-01-08T11:26:37.290Z,99489.31
2023-01-08T11:27:43.526Z,99493.09
2023-01-08T11:28:57.009Z,99488.03
2023-01-08T11:30:04.980Z,99485.41
2023-01-08T11:31:15.842Z,99483.88
2023-01-08T11:32:37.470Z,99485.72
2023-01-08T11:33:40.730Z,99470.47
2023-01-08T11:34:52.420Z,99468.75
2023-01-08T11:35:59.999Z,99463.31
2023-01-08T11:37:13.223Z,99472.00
2023-01-08T11:38:14.832Z,99463.63
2023-01-08T11:39:18.403Z,99458.84
2023-01-08T11:40:32.411Z,99463.72
2023-01-08T11:41:53.369Z,99471.50
2023-01-08T11:43:03.535Z,99469.16
2023-01-08T11:44:21.962Z,99459.84
2023-01-08T11:45:38.341Z,99458.16
2023-01-08T11:46:45.905Z,99455.25
2023-01-08T11:48:05.261Z,99439.13
2023-01-08T11:49:30.701Z,99446.34
2023-01-08T11:50:36.651Z,99440.94
2023-01-08T11:52:01.765Z,99442.00
2023-01-08T11:53:15.731Z,99425.47
2023-01-08T11:54:29.542Z,99435.34
2023-01-08T11:55:50.624Z,99423.22
2023-01-08T11:57:10.497Z,99426.63
2023-01-08T11:58:33.176Z,99411.50
2023-01-08T11:59:52.682Z,99417.97
2023-01-08T12:01:08.382Z,99420.94
2023-01-08T12:02:23.618Z,99418.38
2023-01-08T12:03:32.444Z,99422.31
2023-01-08T12:04:49.833Z,99425.03
2023-01-08T12:06:02.031Z,99420.38
2023-01-08T12:07:15.789Z,99410.63
2023-01-08T12:08:27.769Z,99419.97
2023-01-08T12:09:40.780Z,99419.59
2023-01-08T12:10:57.494Z,99413.72
2023-01-08T12:12:08.670Z,99422.63
2023-01-08T12:13:25.050Z,99415.03
2023-01-08T12:14:46.380Z,99404.25
2023-01-08T12:15:59.103Z,99413.53
2023-01-08T12:17:36.393Z,99422.78
2023-01-08T12:19:00.502Z,99408.72
2023-01-08T12:20:16.794Z,99417.78
2023-01-08T12:21:26.206Z,99410.41
2023-01-08T12:22:38.605Z,99402.03
2023-01-08T12:23:56.914Z,99415.56
2023-01-08T12:25:17.233Z,99411.63
2023-01-08T12:26:25.405Z,99417.78
2023-01-08T12:27:55.777Z,99411.53
2023-01-08T12:29:38.897Z,99430.63
2023-01-08T12:30:52.701Z,99426.16
2023-01-08T12:32:19.590Z,99425.47
2023-01-08T12:33:36.998Z,99430.53
2023-01-08T12:34:51.592Z,99433.53
2023-01-08T12:35:58.687Z,99419.19
2023-01-08T12:37:12.000Z,99418.53
2023-01-08T12:38:19.661Z,99417.75
2023-01-08T12:39:27.844Z,99412.47